createdAt,value
2023-10-21T00:02:24.882Z,20.41
2023-10-21T00:04:53.134Z,20.39
2023-10-21T00:07:21.330Z,20.37
2023-10-21T00:09:49.475Z,20.38
2023-10-21T00:12:17.702Z,20.34
2023-10-21T00:14:46.080Z,20.33
2023-10-21T00:17:14.230Z,20.30
2023-10-21T00:19:42.538Z,20.28
2023-10-21T00:22:11.476Z,20.25
2023-10-21T00:24:39.820Z,20.22
2023-10-21T00:27:08.343Z,20.17
2023-10-21T00:29:36.858Z,20.10
2023-10-21T00:32:06.054Z,20.05
2023-10-21T00:34:39.473Z,20.02
2023-10-21T00:37:09.291Z,19.97
2023-10-21T00:39:38.533Z,19.93
2023-10-21T00:42:07.034Z,19.89
2023-10-21T00:44:35.389Z,19.85
2023-10-21T00:47:04.181Z,19.82
2023-10-21T00:49:33.666Z,19.81
2023-10-21T00:52:04.694Z,19.78
2023-10-21T00:54:33.448Z,19.74
2023-10-21T00:57:02.072Z,19.72
2023-10-21T00:59:30.333Z,19.69
2023-10-21T01:01:58.737Z,19.67
2023-10-21T01:04:27.580Z,19.66
2023-10-21T01:06:56.890Z,19.66
2023-10-21T01:09:27.753Z,19.66
2023-10-21T01:11:56.424Z,19.66
2023-10-21T01:14:25.447Z,19.66
2023-10-21T01:16:53.811Z,19.67
2023-10-21T01:19:23.359Z,19.69
2023-10-21T01:21:51.593Z,19.73
2023-10-21T01:24:19.887Z,19.76
2023-10-21T01:26:48.247Z,19.77
2023-10-21T01:29:16.655Z,19.76
2023-10-21T01:31:45.370Z,19.72
2023-10-21T01:34:14.328Z,19.69
2023-10-21T01:36:42.930Z,19.64
2023-10-21T01:39:11.892Z,19.61
2023-10-21T01:41:40.444Z,19.58
2023-10-21T01:44:11.158Z,19.58
2023-10-21T01:46:42.251Z,19.60
2023-10-21T01:49:13.574Z,19.60
2023-10-21T01:51:45.291Z,19.62
2023-10-21T01:54:17.303Z,19.63
2023-10-21T01:56:48.751Z,19.65
2023-10-21T01:59:20.240Z,19.67
2023-10-21T02:01:51.268Z,19.70
2023-10-21T02:04:22.160Z,19.75
2023-10-21T02:06:52.318Z,19.78
2023-10-21T02:09:24.270Z,19.80
2023-10-21T02:11:59.293Z,19.82
2023-10-21T02:14:31.246Z,19.87
2023-10-21T02:17:02.773Z,19.91
2023-10-21T02:19:34.471Z,19.97
2023-10-21T02:22:07.316Z,20.00
2023-10-21T02:24:39.176Z,19.96
2023-10-21T02:27:14.336Z,19.90
2023-10-21T02:29:47.239Z,19.80
2023-10-21T02:32:19.208Z,19.74
2023-10-21T02:34:50.593Z,19.68
2023-10-21T02:37:21.704Z,19.63
2023-10-21T02:39:52.283Z,19.57
2023-10-21T02:42:24.279Z,19.53
2023-10-21T02:52:30.261Z,19.38
2023-10-21T02:54:58.531Z,19.31
2023-10-21T02:57:27.051Z,19.28
2023-10-21T02:59:56.043Z,19.23
2023-10-21T03:02:24.233Z,19.24
2023-10-21T03:04:52.982Z,19.21
2023-10-21T03:07:21.257Z,19.21
2023-10-21T03:09:49.843Z,19.21
2023-10-21T03:12:18.189Z,19.22
2023-10-21T03:14:46.999Z,19.17
2023-10-21T03:17:15.653Z,19.11
2023-10-21T03:19:44.490Z,19.07
2023-10-21T03:22:12.777Z,19.07
2023-10-21T03:24:41.251Z,19.07
2023-10-21T03:27:09.820Z,19.02
2023-10-21T03:29:38.084Z,18.97
2023-10-21T03:32:07.773Z,18.92
2023-10-21T03:34:36.302Z,18.95
2023-10-21T03:37:05.502Z,18.99
2023-10-21T03:39:34.077Z,19.03
2023-10-21T03:42:02.420Z,19.07
2023-10-21T03:44:30.668Z,19.10
2023-10-21T03:46:59.041Z,19.08
2023-10-21T03:49:27.537Z,19.06
2023-10-21T03:51:56.290Z,19.07
2023-10-21T03:54:24.591Z,19.07
2023-10-21T03:56:53.086Z,19.07
2023-10-21T03:59:21.354Z,19.07
2023-10-21T04:01:49.844Z,19.08
2023-10-21T04:04:18.453Z,19.08
2023-10-21T04:06:47.046Z,19.10
2023-10-21T04:09:15.799Z,19.13
2023-10-21T04:11:44.158Z,19.15
2023-10-21T04:14:12.330Z,19.15
2023-10-21T04:16:45.853Z,19.14
2023-10-21T04:19:14.721Z,19.10
2023-10-21T04:21:43.043Z,19.08
2023-10-21T04:24:11.104Z,19.06
2023-10-21T04:26:39.659Z,19.05
2023-10-21T04:29:08.180Z,19.08
2023-10-21T04:31:36.940Z,19.12
2023-10-21T04:34:05.513Z,19.15
2023-10-21T04:36:33.677Z,19.21
2023-10-21T04:39:01.854Z,19.25
2023-10-21T04:41:30.576Z,19.28
2023-10-21T04:43:58.929Z,19.30
2023-10-21T04:46:27.290Z,19.27
2023-10-21T04:48:56.096Z,19.21
2023-10-21T04:51:25.066Z,19.16
2023-10-21T04:53:53.345Z,19.16
2023-10-21T04:56:22.076Z,19.16
2023-10-21T04:58:50.346Z,19.15
2023-10-21T05:01:18.789Z,19.16
2023-10-21T05:03:47.325Z,19.17
2023-10-21T05:06:15.745Z,19.21
2023-10-21T05:08:44.282Z,19.25
2023-10-21T05:11:12.620Z,19.27
2023-10-21T05:13:40.989Z,19.27
2023-10-21T05:16:09.427Z,19.28
2023-10-21T05:18:37.517Z,19.29
2023-10-21T05:21:09.012Z,19.30
2023-10-21T05:23:37.339Z,19.32
2023-10-21T05:26:05.715Z,19.34
2023-10-21T05:28:34.135Z,19.37
2023-10-21T05:31:03.446Z,19.41
2023-10-21T05:33:31.697Z,19.46
2023-10-21T05:36:01.622Z,19.51
2023-10-21T05:38:30.004Z,19.55
2023-10-21T05:41:00.925Z,19.62
2023-10-21T05:43:29.286Z,19.70
2023-10-21T05:45:58.022Z,19.72
2023-10-21T05:48:26.506Z,19.76
2023-10-21T05:50:55.090Z,19.79
2023-10-21T05:53:23.530Z,19.83
2023-10-21T05:55:51.804Z,19.87
2023-10-21T05:58:20.705Z,19.91
2023-10-21T06:00:48.950Z,19.97
2023-10-21T06:03:17.357Z,20.04
2023-10-21T06:05:45.941Z,20.11
2023-10-21T06:08:14.355Z,20.19
2023-10-21T06:10:45.668Z,20.25
2023-10-21T06:13:14.044Z,20.35
2023-10-21T06:15:42.223Z,20.44
2023-10-21T06:18:10.567Z,20.50
2023-10-21T06:20:38.901Z,20.54
2023-10-21T06:23:07.206Z,20.58
2023-10-21T06:25:35.656Z,20.65
2023-10-21T06:28:04.643Z,20.73
2023-10-21T06:30:33.063Z,20.80
2023-10-21T06:33:01.506Z,20.88
2023-10-21T06:35:30.512Z,20.96
2023-10-21T06:37:58.786Z,21.04
2023-10-21T06:40:41.118Z,21.15
2023-10-21T06:43:15.216Z,21.30
2023-10-21T06:45:46.724Z,21.41
2023-10-21T06:48:15.231Z,21.48
2023-10-21T06:50:43.757Z,21.59
2023-10-21T06:53:12.213Z,21.73
2023-10-21T06:55:43.089Z,21.88
2023-10-21T06:58:12.885Z,22.00
2023-10-21T07:00:41.265Z,22.10
2023-10-21T07:03:09.944Z,22.22
2023-10-21T07:05:38.300Z,22.33
2023-10-21T07:08:07.396Z,22.43
2023-10-21T07:10:35.804Z,22.56
2023-10-21T07:13:04.789Z,22.68
2023-10-21T07:15:33.107Z,22.72
2023-10-21T07:18:02.026Z,22.76
2023-10-21T07:20:30.749Z,22.81
2023-10-21T07:22:59.244Z,22.86
2023-10-21T07:25:27.918Z,22.92
2023-10-21T07:27:56.080Z,22.96
2023-10-21T07:30:25.959Z,22.99
2023-10-21T07:32:54.774Z,22.99
2023-10-21T07:35:23.583Z,22.98
2023-10-21T07:37:52.202Z,23.01
2023-10-21T07:40:21.370Z,23.11
2023-10-21T07:42:50.944Z,23.21
2023-10-21T07:45:19.170Z,23.24
2023-10-21T07:47:47.591Z,23.27
2023-10-21T07:50:16.102Z,23.31
2023-10-21T07:52:44.667Z,23.35
2023-10-21T07:55:15.865Z,23.41
2023-10-21T07:57:44.020Z,23.42
2023-10-21T08:00:15.186Z,23.40
2023-10-21T08:02:44.731Z,23.37
2023-10-21T08:05:12.929Z,23.35
2023-10-21T08:07:41.226Z,23.36
2023-10-21T08:10:11.248Z,23.40
2023-10-21T08:12:40.508Z,23.48
2023-10-21T08:15:09.905Z,23.56
2023-10-21T08:17:38.703Z,23.64
2023-10-21T08:20:08.892Z,23.71
2023-10-21T08:22:37.024Z,23.73
2023-10-21T08:25:07.887Z,23.74
2023-10-21T08:27:39.876Z,23.72
2023-10-21T08:30:12.027Z,23.71
2023-10-21T08:32:40.752Z,23.70
2023-10-21T08:35:09.165Z,23.72
2023-10-21T08:37:38.815Z,23.73
2023-10-21T08:40:11.459Z,23.68
2023-10-21T08:45:12.569Z,23.58
2023-10-21T08:47:44.135Z,23.58
2023-10-21T08:50:14.445Z,23.57
2023-10-21T08:52:43.973Z,23.58
2023-10-21T08:55:12.538Z,23.61
2023-10-21T08:57:40.676Z,23.58
2023-10-21T09:00:11.770Z,23.55
2023-10-21T09:02:40.381Z,23.60
2023-10-21T09:05:13.109Z,23.64
2023-10-21T09:07:46.887Z,23.78
2023-10-21T09:10:16.811Z,23.93
2023-10-21T09:12:44.945Z,23.93
2023-10-21T09:15:13.813Z,23.90
2023-10-21T09:17:53.824Z,23.84
2023-10-21T09:20:23.448Z,23.85
2023-10-21T09:22:53.507Z,23.83
2023-10-21T09:25:23.709Z,23.87
2023-10-21T09:27:57.180Z,23.88
2023-10-21T09:30:26.783Z,23.88
2023-10-21T09:33:04.185Z,23.83
2023-10-21T09:35:33.471Z,23.76
2023-10-21T09:38:19.937Z,23.77
2023-10-21T09:40:49.946Z,23.74
2023-10-21T09:43:19.189Z,23.68
2023-10-21T09:45:51.274Z,23.63
2023-10-21T09:48:19.883Z,23.62
2023-10-21T09:50:52.479Z,23.60
2023-10-21T09:53:26.541Z,23.54
2023-10-21T09:55:57.225Z,23.54
2023-10-21T09:58:28.277Z,23.58
2023-10-21T10:00:57.520Z,23.62
2023-10-21T10:03:28.053Z,23.69
2023-10-21T10:05:56.723Z,23.70
2023-10-21T10:08:25.368Z,23.78
2023-10-21T10:10:56.776Z,23.84
2023-10-21T10:13:26.480Z,23.88
2023-10-21T10:15:56.595Z,23.95
2023-10-21T10:18:25.740Z,24.07
2023-10-21T10:20:54.652Z,24.24
2023-10-21T10:23:26.301Z,24.42
2023-10-21T10:25:58.705Z,24.54
2023-10-21T10:28:27.948Z,24.67
2023-10-21T10:30:58.695Z,24.72
2023-10-21T10:33:32.687Z,24.72
2023-10-21T10:36:14.559Z,24.80
2023-10-21T10:38:46.930Z,24.85
2023-10-21T10:41:20.523Z,24.91
2023-10-21T10:43:53.326Z,24.97
2023-10-21T10:46:25.302Z,24.90
2023-10-21T10:48:54.039Z,24.78
2023-10-21T10:51:32.353Z,24.65
2023-10-21T10:54:02.141Z,24.54
2023-10-21T10:56:51.668Z,24.45
2023-10-21T10:59:20.339Z,24.38
2023-10-21T11:01:59.093Z,24.28
2023-10-21T11:04:27.560Z,24.23
2023-10-21T11:06:58.118Z,24.21
2023-10-21T11:09:32.431Z,24.21
2023-10-21T11:12:09.344Z,24.21
2023-10-21T11:14:39.859Z,24.25
2023-10-21T11:17:08.387Z,24.22
2023-10-21T11:19:37.134Z,24.20
2023-10-21T11:22:09.841Z,24.20
2023-10-21T11:24:39.043Z,24.18
2023-10-21T11:27:07.878Z,24.15
2023-10-21T11:29:38.980Z,24.17
2023-10-21T11:32:12.605Z,24.21
2023-10-21T11:34:46.070Z,24.30
2023-10-21T11:37:14.578Z,24.40
2023-10-21T11:39:43.113Z,24.46
2023-10-21T11:42:21.648Z,24.52
2023-10-21T11:45:01.873Z,24.54
2023-10-21T11:47:31.976Z,24.63
2023-10-21T11:50:00.538Z,24.68
2023-10-21T11:52:29.014Z,24.74
2023-10-21T11:55:11.239Z,24.84
2023-10-21T11:57:59.490Z,24.97
2023-10-21T12:00:47.170Z,25.05
2023-10-21T12:03:34.328Z,25.11
2023-10-21T12:06:08.729Z,25.20
2023-10-21T12:08:54.264Z,25.24
2023-10-21T12:11:28.458Z,25.25
2023-10-21T12:13:56.864Z,25.25
2023-10-21T12:16:31.079Z,25.26
2023-10-21T12:19:18.285Z,25.23
2023-10-21T12:22:02.121Z,25.19
2023-10-21T12:24:45.671Z,25.18
2023-10-21T12:27:32.612Z,25.16
2023-10-21T12:30:20.240Z,25.19
2023-10-21T12:32:54.394Z,25.19
2023-10-21T12:35:37.945Z,25.14
2023-10-21T12:38:06.751Z,25.09
2023-10-21T12:40:37.741Z,25.07
2023-10-21T12:43:18.573Z,25.08
2023-10-21T12:45:48.138Z,25.08
2023-10-21T12:48:19.553Z,25.12
2023-10-21T12:50:52.431Z,25.11
2023-10-21T12:53:20.902Z,25.10
2023-10-21T12:55:49.285Z,25.03
2023-10-21T12:58:17.544Z,24.93
2023-10-21T13:00:46.339Z,24.84
2023-10-21T13:03:14.827Z,24.74
2023-10-21T13:13:22.883Z,24.28
2023-10-21T13:15:51.307Z,24.21
2023-10-21T13:18:20.824Z,24.15
2023-10-21T13:20:50.605Z,24.08
2023-10-21T13:23:19.216Z,24.00
2023-10-21T13:25:47.861Z,24.01
2023-10-21T13:28:16.140Z,23.96
2023-10-21T13:30:45.793Z,23.96
2023-10-21T13:33:14.649Z,23.96
2023-10-21T13:35:43.129Z,23.96
2023-10-21T13:38:12.938Z,23.94
2023-10-21T13:40:41.194Z,23.92
2023-10-21T13:43:11.410Z,23.87
2023-10-21T13:45:39.778Z,23.84
2023-10-21T13:48:12.830Z,23.78
2023-10-21T13:50:42.543Z,23.75
2023-10-21T13:53:15.917Z,23.72
2023-10-21T13:55:47.880Z,23.72
2023-10-21T13:58:22.086Z,23.71
2023-10-21T14:00:52.186Z,23.71
2023-10-21T14:03:23.374Z,23.72
2023-10-21T14:05:53.921Z,23.71
2023-10-21T14:08:26.806Z,23.73
2023-10-21T14:10:57.927Z,23.74
2023-10-21T14:13:29.713Z,23.74
2023-10-21T14:16:06.378Z,23.72
2023-10-21T14:18:34.989Z,23.70
2023-10-21T14:21:03.474Z,23.67
2023-10-21T14:23:32.025Z,23.62
2023-10-21T14:26:01.012Z,23.56
2023-10-21T14:28:30.136Z,23.50
2023-10-21T14:31:00.667Z,23.44
2023-10-21T14:33:34.001Z,23.37
2023-10-21T14:36:07.619Z,23.31
2023-10-21T14:38:36.430Z,23.26
2023-10-21T14:41:04.820Z,23.20
2023-10-21T14:43:33.409Z,23.13
2023-10-21T14:46:01.983Z,23.10
2023-10-21T14:48:30.498Z,23.10
2023-10-21T14:50:58.864Z,23.06
2023-10-21T14:53:27.569Z,23.00
2023-10-21T14:55:55.930Z,22.94
2023-10-21T14:58:25.396Z,22.88
2023-10-21T15:00:54.707Z,22.84
2023-10-21T15:03:24.557Z,22.80
2023-10-21T15:05:54.460Z,22.73
2023-10-21T15:08:25.342Z,22.68
2023-10-21T15:10:54.494Z,22.63
2023-10-21T15:13:29.027Z,22.59
2023-10-21T15:16:01.503Z,22.55
2023-10-21T15:18:31.947Z,22.49
2023-10-21T15:21:08.283Z,22.42
2023-10-21T15:23:38.584Z,22.38
2023-10-21T15:26:18.006Z,22.36
2023-10-21T15:28:46.662Z,22.32
2023-10-21T15:31:14.946Z,22.29
2023-10-21T15:33:43.336Z,22.24
2023-10-21T15:36:13.441Z,22.19
2023-10-21T15:38:41.951Z,22.10
2023-10-21T15:41:17.824Z,22.01
2023-10-21T15:43:46.564Z,21.91
2023-10-21T15:46:14.859Z,21.85
2023-10-21T15:48:43.486Z,21.75
2023-10-21T15:51:13.901Z,21.65
2023-10-21T15:53:46.005Z,21.59
2023-10-21T15:56:17.127Z,21.51
2023-10-21T15:58:45.886Z,21.45
2023-10-21T16:01:14.193Z,21.39
2023-10-21T16:03:42.870Z,21.30
2023-10-21T16:06:15.101Z,21.25
2023-10-21T16:08:44.905Z,21.19
2023-10-21T16:11:13.225Z,21.11
2023-10-21T16:13:41.621Z,21.04
2023-10-21T16:16:10.629Z,20.98
2023-10-21T16:18:38.975Z,20.92
2023-10-21T16:21:07.482Z,20.89
2023-10-21T16:23:35.982Z,20.84
2023-10-21T16:26:04.349Z,20.80
2023-10-21T16:28:33.222Z,20.71
2023-10-21T16:31:05.601Z,20.65
2023-10-21T16:33:36.748Z,20.62
2023-10-21T16:36:06.345Z,20.58
2023-10-21T16:38:36.556Z,20.56
2023-10-21T16:41:05.469Z,20.52
2023-10-21T16:43:36.705Z,20.48
2023-10-21T16:46:06.176Z,20.41
2023-10-21T16:48:34.805Z,20.33
2023-10-21T16:51:03.060Z,20.28
2023-10-21T16:53:32.681Z,20.24
2023-10-21T16:56:01.073Z,20.19
2023-10-21T16:58:29.394Z,20.13
2023-10-21T17:01:00.710Z,20.08
2023-10-21T17:03:29.332Z,20.05
2023-10-21T17:06:01.984Z,20.00
2023-10-21T17:08:35.806Z,19.98
2023-10-21T17:11:05.222Z,19.97
2023-10-21T17:13:33.502Z,19.95
2023-10-21T17:16:02.644Z,19.94
2023-10-21T17:18:33.212Z,19.92
2023-10-21T17:21:03.623Z,19.92
2023-10-21T17:23:34.139Z,19.94
2023-10-21T17:26:02.699Z,19.98
2023-10-21T17:28:34.077Z,19.99
2023-10-21T17:31:02.454Z,20.03
2023-10-21T17:33:39.831Z,20.06
2023-10-21T17:36:19.648Z,20.06
2023-10-21T17:38:48.106Z,20.04
2023-10-21T17:41:16.352Z,20.02
2023-10-21T17:43:44.693Z,20.01
2023-10-21T17:46:13.240Z,20.00
2023-10-21T17:48:41.823Z,19.97
2023-10-21T17:51:10.288Z,19.94
2023-10-21T17:53:39.104Z,19.90
2023-10-21T17:56:07.558Z,19.86
2023-10-21T17:58:36.060Z,19.82
2023-10-21T18:01:05.818Z,19.77
2023-10-21T18:03:34.884Z,19.71
2023-10-21T18:06:03.662Z,19.63
2023-10-21T18:08:32.263Z,19.56
2023-10-21T18:11:00.715Z,19.52
2023-10-21T18:13:28.868Z,19.47
2023-10-21T18:15:58.591Z,19.43
2023-10-21T18:18:27.109Z,19.41
2023-10-21T18:20:55.466Z,19.37
2023-10-21T18:23:23.760Z,19.33
2023-10-21T18:26:03.365Z,19.30
2023-10-21T18:28:32.453Z,19.22
2023-10-21T18:31:02.249Z,19.16
2023-10-21T18:33:31.444Z,19.14
2023-10-21T18:35:59.857Z,19.13
2023-10-21T18:38:28.360Z,19.11
2023-10-21T18:40:57.001Z,19.08
2023-10-21T18:43:25.157Z,19.04
2023-10-21T18:45:58.053Z,19.00
2023-10-21T18:48:26.394Z,18.99
2023-10-21T18:51:01.649Z,18.99
2023-10-21T18:53:29.749Z,18.97
2023-10-21T18:55:58.099Z,18.95
2023-10-21T18:58:26.562Z,18.93
2023-10-21T19:00:59.080Z,18.90
2023-10-21T19:03:27.989Z,18.88
2023-10-21T19:05:56.351Z,18.87
2023-10-21T19:08:25.450Z,18.84
2023-10-21T19:10:54.035Z,18.83
2023-10-21T19:13:25.324Z,18.78
2023-10-21T19:15:53.594Z,18.72
2023-10-21T19:18:22.432Z,18.70
2023-10-21T19:20:50.619Z,18.69
2023-10-21T19:23:18.969Z,18.67
2023-10-21T19:25:49.900Z,18.67
2023-10-21T19:28:19.571Z,18.65
2023-10-21T19:30:48.094Z,18.59
2023-10-21T19:33:16.529Z,18.56
2023-10-21T19:35:54.667Z,18.56
2023-10-21T19:38:23.748Z,18.54
2023-10-21T19:40:54.294Z,18.51
2023-10-21T19:43:24.708Z,18.45
2023-10-21T19:45:52.968Z,18.41
2023-10-21T19:48:21.343Z,18.38
2023-10-21T19:50:49.610Z,18.36
2023-10-21T19:53:18.256Z,18.33
2023-10-21T19:56:00.005Z,18.31
2023-10-21T19:58:28.756Z,18.31
2023-10-21T20:01:07.818Z,18.29
2023-10-21T20:03:37.323Z,18.28
2023-10-21T20:06:06.713Z,18.25
2023-10-21T20:08:35.501Z,18.28
2023-10-21T20:11:09.027Z,18.32
2023-10-21T20:13:37.408Z,18.34
2023-10-21T20:16:10.818Z,18.36
2023-10-21T20:18:41.039Z,18.40
2023-10-21T20:21:09.447Z,18.41
2023-10-21T20:23:42.090Z,18.43
2023-10-21T20:26:16.167Z,18.42
2023-10-21T20:28:44.973Z,18.42
2023-10-21T20:31:13.825Z,18.41
2023-10-21T20:33:43.598Z,18.37
2023-10-21T20:36:12.166Z,18.35
2023-10-21T20:38:40.422Z,18.32
2023-10-21T20:41:10.011Z,18.29
2023-10-21T20:43:39.538Z,18.27
2023-10-21T20:46:09.164Z,18.23
2023-10-21T20:48:40.234Z,18.20
2023-10-21T20:51:18.693Z,18.17
2023-10-21T20:53:46.981Z,18.12
2023-10-21T20:56:20.292Z,18.04
2023-10-21T20:58:49.177Z,17.99
2023-10-21T21:01:30.322Z,17.97
2023-10-21T21:04:05.685Z,17.92
2023-10-21T21:06:34.318Z,17.89
2023-10-21T21:09:06.973Z,17.82
2023-10-21T21:11:35.461Z,17.80
2023-10-21T21:14:04.258Z,17.76
2023-10-21T21:16:36.277Z,17.73
2023-10-21T21:19:06.316Z,17.73
2023-10-21T21:21:35.263Z,17.73
2023-10-21T21:24:06.778Z,17.73
2023-10-21T21:26:36.093Z,17.72
2023-10-21T21:29:05.676Z,17.72
2023-10-21T21:31:34.189Z,17.71
2023-10-21T21:34:02.564Z,17.71
2023-10-21T21:36:33.156Z,17.69
2023-10-21T21:39:01.892Z,17.68
2023-10-21T21:41:30.262Z,17.68
2023-10-21T21:43:58.467Z,17.68
2023-10-21T21:46:26.972Z,17.69
2023-10-21T21:48:55.534Z,17.69
2023-10-21T21:51:24.112Z,17.70
2023-10-21T21:53:52.585Z,17.72
2023-10-21T21:56:20.674Z,17.72
2023-10-21T21:58:49.370Z,17.73
2023-10-21T22:01:27.788Z,17.72
2023-10-21T22:03:57.822Z,17.72
2023-10-21T22:06:27.024Z,17.72
2023-10-21T22:08:55.865Z,17.71
2023-10-21T22:11:26.401Z,17.72
2023-10-21T22:13:54.970Z,17.72
2023-10-21T22:16:24.053Z,17.72
2023-10-21T22:18:52.578Z,17.71
2023-10-21T22:21:21.357Z,17.70
2023-10-21T22:24:01.127Z,17.69
2023-10-21T22:26:31.402Z,17.67
2023-10-21T22:29:02.665Z,17.66
2023-10-21T22:31:31.505Z,17.63
2023-10-21T22:34:00.172Z,17.62
2023-10-21T22:36:28.430Z,17.60
2023-10-21T22:38:57.575Z,17.58
2023-10-21T22:41:26.843Z,17.55
2023-10-21T22:43:55.138Z,17.54
2023-10-21T22:46:23.822Z,17.52
2023-10-21T22:48:52.694Z,17.49
2023-10-21T22:51:20.820Z,17.49
2023-10-21T22:53:48.987Z,17.48
2023-10-21T22:56:17.445Z,17.48
2023-10-21T22:58:45.929Z,17.48
2023-10-21T23:01:15.007Z,17.47
2023-10-21T23:03:43.582Z,17.46
2023-10-21T23:06:12.761Z,17.44
2023-10-21T23:08:41.227Z,17.39
2023-10-21T23:11:10.472Z,17.33
2023-10-21T23:13:39.145Z,17.27
2023-10-21T23:16:07.718Z,17.23
2023-10-21T23:18:39.134Z,17.19
2023-10-21T23:21:07.969Z,17.16
2023-10-21T23:23:36.421Z,17.09
2023-10-21T23:26:04.949Z,17.02
2023-10-21T23:28:33.437Z,16.97
2023-10-21T23:31:03.115Z,16.95
2023-10-21T23:33:31.581Z,16.93
2023-10-21T23:36:04.900Z,16.90
2023-10-21T23:38:34.521Z,16.84
2023-10-21T23:41:09.117Z,16.79
2023-10-21T23:43:37.498Z,16.71
2023-10-21T23:46:09.737Z,16.67
2023-10-21T23:48:39.007Z,16.62
2023-10-21T23:51:07.670Z,16.56
2023-10-21T23:53:36.407Z,16.54
2023-10-21T23:56:04.876Z,16.53
2023-10-21T23:58:33.012Z,16.53
